Pine, Texas
Current Conditions -  °F | °C
As of 8:35 AM on Thursday 27 Nov 2014 (Local Time) from KOSA Reporting Station
Clear Clear  
Wind Chill: 37°   Ceiling: Unl
Heat Index: 42°   Visibility: 10mi
Dew Point: 27°   Wind: 8mph
Humidity: 55%   Direction: 350°N
Pressure: 30.55"   Gusts: NA
Location:  32.9352°N, 94.9553°W
Report Text: KOSA 271435Z AUTO 35007KT 10SM CLR 06/M03 A3055 RMK AO1 T00551030
Loading
Personal Weather Stations






























Interactive Weather Map New forecast layout! Learn more

10-Day Weather Forecast

Advertisements
Track Severe Weather on mobile